Time;durP1;ratioP1;P1;durP2;ratioP2;P2;SDS_P1;SDS_P2;PMS_P1;PMS_P2;Temp;Humidity;BMP_temperature;BMP_pressure;BME280_temperature;BME280_humidity;BME280_pressure;Samples;Min_cycle;Max_cycle;Signal;HPM_P1;HPM_P2
2022/05/12 00:00:39;;;;;;;;;;;17.90;40.50;;;;;;5041036;28;19925;-89
2022/05/12 00:03:06;;;;;;;;;;;17.80;40.50;;;;;;5040527;28;19918;-83
2022/05/12 00:05:31;;;;;;;;;;;17.80;40.60;;;;;;5043726;28;19917;-90
2022/05/12 00:07:57;;;;;;;;;;;17.80;40.40;;;;;;5016389;28;20016;-86
2022/05/12 00:10:24;;;;;;;;;;;17.80;40.50;;;;;;5029059;28;20280;-90
2022/05/12 00:12:50;;;;;;;;;;;17.80;40.50;;;;;;5030217;28;19921;-89
2022/05/12 00:15:21;;;;;;;;;;;17.70;40.50;;;;;;5030265;28;20351;-89
2022/05/12 00:17:47;;;;;;;;;;;17.80;40.50;;;;;;5049578;28;19925;-93
2022/05/12 00:20:14;;;;;;;;;;;17.80;40.30;;;;;;5028697;28;19924;-87
2022/05/12 00:22:40;;;;;;;;;;;17.90;40.20;;;;;;5028551;28;19920;-91
2022/05/12 00:25:14;;;;;;;;;;;17.80;40.20;;;;;;5023511;28;19941;-90
2022/05/12 00:27:39;;;;;;;;;;;17.80;40.20;;;;;;5010915;28;20379;-89
2022/05/12 00:30:09;;;;;;;;;;;17.80;40.20;;;;;;5025638;28;19921;-89
2022/05/12 00:32:39;;;;;;;;;;;17.80;40.20;;;;;;5022106;28;19916;-90
2022/05/12 00:35:06;;;;;;;;;;;17.80;40.30;;;;;;5026157;28;19917;-85
2022/05/12 00:37:32;;;;;;;;;;;17.70;40.20;;;;;;5026662;28;19925;-90
2022/05/12 00:39:58;;;;;;;;;;;17.80;40.30;;;;;;5034288;28;19939;-83
2022/05/12 00:42:24;;;;;;;;;;;17.80;40.20;;;;;;5029771;28;20371;-90
2022/05/12 00:44:49;;;;;;;;;;;17.80;40.10;;;;;;5037157;28;19921;-88
2022/05/12 00:47:15;;;;;;;;;;;17.90;40.10;;;;;;5024713;28;19921;-90
2022/05/12 00:49:41;;;;;;;;;;;17.80;40.00;;;;;;5036552;28;19921;-85
2022/05/12 00:52:10;;;;;;;;;;;17.70;40.20;;;;;;5033469;28;19922;-88
2022/05/12 00:54:47;;;;;;;;;;;17.80;40.30;;;;;;5034225;28;20448;-90
2022/05/12 00:57:16;;;;;;;;;;;17.70;40.90;;;;;;5028066;28;20179;-87
2022/05/12 00:59:43;;;;;;;;;;;17.70;40.30;;;;;;5023263;28;20299;-88
2022/05/12 01:02:10;;;;;;;;;;;17.80;40.40;;;;;;5027629;28;19924;-91
2022/05/12 01:04:38;;;;;;;;;;;17.80;40.30;;;;;;5024841;28;20356;-91
2022/05/12 01:07:04;;;;;;;;;;;17.80;40.20;;;;;;5022958;28;20319;-93
2022/05/12 01:09:31;;;;;;;;;;;17.80;40.30;;;;;;5024237;28;19925;-90
2022/05/12 01:11:57;;;;;;;;;;;17.80;40.80;;;;;;5031614;28;20020;-91
2022/05/12 01:14:23;;;;;;;;;;;17.80;40.20;;;;;;5053000;28;19917;-91
2022/05/12 01:16:53;;;;;;;;;;;17.70;40.20;;;;;;5030395;28;19925;-92
2022/05/12 01:19:24;;;;;;;;;;;17.70;40.30;;;;;;5034058;28;19917;-90
2022/05/12 01:21:50;;;;;;;;;;;17.70;40.30;;;;;;5034535;28;19918;-92
2022/05/12 01:24:17;;;;;;;;;;;17.80;40.30;;;;;;5022013;28;19918;-91
2022/05/12 01:26:43;;;;;;;;;;;17.80;40.30;;;;;;5022633;28;20422;-93
2022/05/12 01:29:09;;;;;;;;;;;17.70;40.30;;;;;;5034036;28;19905;-81
2022/05/12 01:31:35;;;;;;;;;;;17.70;40.30;;;;;;5035951;28;19897;-88
2022/05/12 01:34:02;;;;;;;;;;;17.70;40.30;;;;;;5042548;28;19976;-87
2022/05/12 01:36:28;;;;;;;;;;;17.70;40.40;;;;;;5029972;28;19932;-94
2022/05/12 01:38:54;;;;;;;;;;;17.70;40.40;;;;;;5023864;28;20271;-93
2022/05/12 01:41:20;;;;;;;;;;;17.70;40.40;;;;;;5029718;28;20004;-93
2022/05/12 01:43:46;;;;;;;;;;;17.70;40.50;;;;;;5023553;28;19921;-92
2022/05/12 01:46:12;;;;;;;;;;;17.60;40.60;;;;;;5029047;28;19913;-89
2022/05/12 01:48:38;;;;;;;;;;;17.50;40.60;;;;;;5039346;28;19947;-88
2022/05/12 01:51:04;;;;;;;;;;;17.50;40.70;;;;;;5028516;28;19917;-91
2022/05/12 01:53:30;;;;;;;;;;;17.60;40.90;;;;;;5020008;28;19901;-91
2022/05/12 01:55:56;;;;;;;;;;;17.60;40.90;;;;;;5040159;28;19920;-83
2022/05/12 01:58:22;;;;;;;;;;;17.60;40.90;;;;;;5039253;28;19897;-80
2022/05/12 02:00:48;;;;;;;;;;;17.60;41.00;;;;;;5039454;28;19924;-90
2022/05/12 02:03:14;;;;;;;;;;;17.60;41.10;;;;;;5039830;28;19917;-90
2022/05/12 02:05:40;;;;;;;;;;;17.60;41.10;;;;;;5022384;28;20092;-91
2022/05/12 02:08:07;;;;;;;;;;;17.60;41.00;;;;;;5040243;28;19932;-94
2022/05/12 02:10:37;;;;;;;;;;;17.60;41.10;;;;;;5027506;28;19925;-84
2022/05/12 02:13:04;;;;;;;;;;;17.60;41.20;;;;;;5038795;28;19961;-93
2022/05/12 02:15:30;;;;;;;;;;;17.70;41.30;;;;;;5027508;28;19921;-90
2022/05/12 02:17:57;;;;;;;;;;;17.80;41.50;;;;;;5009690;28;20059;-85
2022/05/12 02:20:23;;;;;;;;;;;17.80;41.50;;;;;;5012573;28;19951;-93
2022/05/12 02:22:49;;;;;;;;;;;17.90;41.40;;;;;;5030896;28;19917;-90
2022/05/12 02:25:15;;;;;;;;;;;17.90;41.30;;;;;;5026833;28;20012;-92
2022/05/12 02:27:47;;;;;;;;;;;17.90;41.30;;;;;;5023815;28;19917;-90
2022/05/12 02:30:15;;;;;;;;;;;17.90;41.30;;;;;;5026359;28;20833;-86
2022/05/12 02:32:41;;;;;;;;;;;18.00;41.30;;;;;;5024507;28;19918;-89
2022/05/12 02:35:07;;;;;;;;;;;18.00;41.30;;;;;;5006807;28;20465;-89
2022/05/12 02:37:33;;;;;;;;;;;17.90;41.40;;;;;;5025927;28;19917;-85
2022/05/12 02:39:59;;;;;;;;;;;18.00;41.40;;;;;;5009486;28;19916;-89
2022/05/12 02:42:25;;;;;;;;;;;17.90;41.30;;;;;;5022015;28;19921;-90
2022/05/12 02:44:51;;;;;;;;;;;17.90;41.30;;;;;;4997413;28;19923;-91
2022/05/12 02:47:17;;;;;;;;;;;17.90;41.40;;;;;;5027729;28;19927;-86
2022/05/12 02:49:49;;;;;;;;;;;17.90;41.60;;;;;;5013712;28;19916;-90
2022/05/12 02:52:15;;;;;;;;;;;17.90;41.40;;;;;;5025167;28;19917;-88
2022/05/12 02:54:41;;;;;;;;;;;18.00;41.70;;;;;;5014317;28;19924;-92
2022/05/12 02:57:07;;;;;;;;;;;18.00;41.80;;;;;;5033929;28;19927;-90
2022/05/12 02:59:33;;;;;;;;;;;18.00;42.00;;;;;;5030164;28;20174;-89
2022/05/12 03:01:59;;;;;;;;;;;18.00;42.10;;;;;;5044435;28;19917;-83
2022/05/12 03:04:26;;;;;;;;;;;18.00;42.10;;;;;;5052252;28;19924;-85
2022/05/12 03:06:51;;;;;;;;;;;18.00;42.30;;;;;;5049094;28;19920;-91
2022/05/12 03:09:17;;;;;;;;;;;18.00;42.50;;;;;;5049665;28;19984;-91
2022/05/12 03:11:43;;;;;;;;;;;18.00;42.60;;;;;;5015207;28;19917;-93
2022/05/12 03:14:09;;;;;;;;;;;18.00;42.70;;;;;;5014691;28;19917;-91
2022/05/12 03:16:35;;;;;;;;;;;18.00;42.70;;;;;;5021824;28;19917;-90
2022/05/12 03:19:01;;;;;;;;;;;18.00;42.80;;;;;;5013471;28;19959;-91
2022/05/12 03:21:27;;;;;;;;;;;18.00;42.80;;;;;;5023469;28;19928;-92
2022/05/12 03:23:53;;;;;;;;;;;18.00;42.90;;;;;;5012412;28;20010;-86
2022/05/12 03:26:19;;;;;;;;;;;18.00;43.00;;;;;;5039697;28;19917;-90
2022/05/12 03:28:45;;;;;;;;;;;18.00;43.00;;;;;;4995988;28;19920;-91
2022/05/12 03:31:11;;;;;;;;;;;18.00;43.00;;;;;;5023675;28;19913;-90
2022/05/12 03:33:38;;;;;;;;;;;18.00;43.10;;;;;;5023276;28;19928;-90
2022/05/12 03:36:05;;;;;;;;;;;18.00;43.10;;;;;;5011711;28;19972;-91
2022/05/12 03:38:30;;;;;;;;;;;18.00;43.10;;;;;;5026526;28;19916;-91
2022/05/12 03:40:56;;;;;;;;;;;18.00;43.10;;;;;;5012866;28;19976;-87
2022/05/12 03:46:07;;;;;;;;;;;18.00;43.10;;;;;;5026127;28;19917;-91
2022/05/12 03:48:37;;;;;;;;;;;18.00;43.20;;;;;;5025692;28;19928;-88
2022/05/12 03:51:03;;;;;;;;;;;18.00;43.40;;;;;;5004638;28;19921;-91
2022/05/12 03:53:30;;;;;;;;;;;18.00;43.40;;;;;;5012808;28;20321;-92
2022/05/12 03:55:56;;;;;;;;;;;18.00;43.60;;;;;;5013673;28;19977;-96
2022/05/12 03:58:22;;;;;;;;;;;18.00;43.50;;;;;;5035949;28;19936;-93
2022/05/12 04:00:49;;;;;;;;;;;18.10;43.60;;;;;;5020988;28;19916;-96
2022/05/12 04:03:16;;;;;;;;;;;18.10;43.60;;;;;;4999860;28;19925;-95
2022/05/12 04:05:43;;;;;;;;;;;18.10;43.70;;;;;;5006181;28;19971;-93
2022/05/12 04:08:09;;;;;;;;;;;18.10;43.60;;;;;;5011748;28;19904;-92
2022/05/12 04:10:35;;;;;;;;;;;18.10;43.60;;;;;;5018416;28;19956;-94
2022/05/12 04:13:01;;;;;;;;;;;18.10;43.80;;;;;;5021915;28;19909;-94
2022/05/12 04:15:27;;;;;;;;;;;18.10;43.90;;;;;;5023746;28;19929;-89
2022/05/12 04:17:57;;;;;;;;;;;18.10;43.90;;;;;;4995316;28;20335;-87
2022/05/12 04:20:24;;;;;;;;;;;18.10;44.10;;;;;;5007645;28;19917;-88
2022/05/12 04:22:50;;;;;;;;;;;18.10;44.10;;;;;;5010785;28;19956;-89
2022/05/12 04:25:16;;;;;;;;;;;18.10;44.10;;;;;;5012873;28;20388;-93
2022/05/12 04:27:42;;;;;;;;;;;18.10;44.20;;;;;;5015010;28;19917;-91
2022/05/12 04:30:11;;;;;;;;;;;18.10;44.20;;;;;;5035567;28;19905;-89
2022/05/12 04:32:38;;;;;;;;;;;18.10;44.20;;;;;;5102912;23;19929;-87
2022/05/12 04:35:14;;;;;;;;;;;18.10;44.30;;;;;;5017845;28;19902;-89
2022/05/12 04:37:40;;;;;;;;;;;18.10;44.40;;;;;;5033306;28;19944;-87
2022/05/12 04:40:08;;;;;;;;;;;18.10;44.30;;;;;;5020750;28;19931;-84
2022/05/12 04:42:34;;;;;;;;;;;18.20;44.40;;;;;;5008410;28;20482;-82
2022/05/12 04:45:00;;;;;;;;;;;18.20;44.50;;;;;;5016990;28;19937;-84
2022/05/12 04:47:26;;;;;;;;;;;18.20;44.50;;;;;;4988282;28;19922;-90
2022/05/12 04:49:52;;;;;;;;;;;18.30;44.40;;;;;;4990421;28;19925;-88
2022/05/12 04:52:18;;;;;;;;;;;18.30;44.60;;;;;;4999030;28;19913;-86
